Time;durP1;ratioP1;P1;durP2;ratioP2;P2;SDS_P1;SDS_P2;PMS_P1;PMS_P2;Temp;Humidity;BMP_temperature;BMP_pressure;BME280_temperature;BME280_humidity;BME280_pressure;Samples;Min_cycle;Max_cycle;Signal;HPM_P1;HPM_P2
2021/01/28 00:01:22;;;;;;;92.90;39.33;;;;;;;;;;5082528;28;20034;-86
2021/01/28 00:03:48;;;;;;;90.15;39.30;;;;;;;;;;5013363;28;20385;-85
2021/01/28 00:06:14;;;;;;;94.80;40.35;;;;;;;;;;5081787;28;20042;-84
2021/01/28 00:08:42;;;;;;;87.80;39.38;;;;;;;;;;5081767;28;20331;-85
2021/01/28 00:11:08;;;;;;;81.15;36.92;;;;;;;;;;5081291;28;20102;-86
2021/01/28 00:13:34;;;;;;;94.15;38.28;;;;;;;;;;5081563;28;20070;-84
2021/01/28 00:16:00;;;;;;;89.38;37.85;;;;;;;;;;5081461;28;20357;-85
2021/01/28 00:18:26;;;;;;;84.30;35.85;;;;;;;;;;5081707;28;20018;-85
2021/01/28 00:20:52;;;;;;;93.28;39.70;;;;;;;;;;5013683;28;20128;-85
2021/01/28 00:23:19;;;;;;;78.30;35.25;;;;;;;;;;5082950;28;20026;-84
2021/01/28 00:25:46;;;;;;;83.70;36.22;;;;;;;;;;5014792;28;20053;-85
2021/01/28 00:28:14;;;;;;;85.10;37.10;;;;;;;;;;5083032;28;20030;-86
2021/01/28 00:30:41;;;;;;;88.38;37.40;;;;;;;;;;5014845;28;20057;-86
2021/01/28 00:33:08;;;;;;;91.38;38.08;;;;;;;;;;5082697;28;20429;-85
2021/01/28 00:35:36;;;;;;;94.55;40.67;;;;;;;;;;5015043;28;20033;-85
2021/01/28 00:38:03;;;;;;;88.20;38.00;;;;;;;;;;5082278;28;20535;-85
2021/01/28 00:40:30;;;;;;;95.97;36.63;;;;;;;;;;5081284;28;20059;-86
2021/01/28 00:42:57;;;;;;;100.85;42.17;;;;;;;;;;5014125;28;20067;-85
2021/01/28 00:45:24;;;;;;;93.00;39.83;;;;;;;;;;5082551;28;20055;-85
2021/01/28 00:47:50;;;;;;;93.07;38.58;;;;;;;;;;5014600;28;20026;-87
2021/01/28 00:50:18;;;;;;;92.05;39.60;;;;;;;;;;5082911;28;20034;-85
2021/01/28 00:52:44;;;;;;;95.70;40.65;;;;;;;;;;5015217;28;20030;-85
2021/01/28 00:55:12;;;;;;;86.45;37.05;;;;;;;;;;5014187;28;20034;-85
2021/01/28 00:57:38;;;;;;;97.22;40.50;;;;;;;;;;5081981;28;20026;-85
2021/01/28 01:00:07;;;;;;;91.53;38.67;;;;;;;;;;5013879;28;20041;-87
2021/01/28 01:02:33;;;;;;;81.43;35.72;;;;;;;;;;5084157;28;20035;-85
2021/01/28 01:05:00;;;;;;;96.13;40.72;;;;;;;;;;5084956;28;20026;-86
2021/01/28 01:07:26;;;;;;;92.35;39.88;;;;;;;;;;5082321;28;20065;-85
2021/01/28 01:09:52;;;;;;;95.93;40.25;;;;;;;;;;5014477;28;20026;-85
2021/01/28 01:12:18;;;;;;;101.55;44.47;;;;;;;;;;5058254;28;20322;-87
2021/01/28 01:14:44;;;;;;;88.28;37.55;;;;;;;;;;5068393;28;20108;-85
2021/01/28 01:17:10;;;;;;;89.45;38.65;;;;;;;;;;5078861;28;20017;-85
2021/01/28 01:19:36;;;;;;;87.80;34.78;;;;;;;;;;5079452;28;20061;-84
2021/01/28 01:22:02;;;;;;;87.28;36.55;;;;;;;;;;5078736;28;20116;-86
2021/01/28 01:24:28;;;;;;;99.57;40.17;;;;;;;;;;5079582;28;20040;-86
2021/01/28 01:26:54;;;;;;;94.35;38.63;;;;;;;;;;5079796;28;20027;-84
2021/01/28 01:29:20;;;;;;;92.88;38.42;;;;;;;;;;5098941;28;20025;-84
2021/01/28 01:31:46;;;;;;;91.45;36.95;;;;;;;;;;5085019;28;20024;-83
2021/01/28 01:34:12;;;;;;;89.18;39.03;;;;;;;;;;5090762;28;20042;-83
2021/01/28 01:36:39;;;;;;;81.53;34.47;;;;;;;;;;5068845;28;20030;-84
2021/01/28 01:39:05;;;;;;;82.15;36.35;;;;;;;;;;5092371;28;20417;-84
2021/01/28 01:41:31;;;;;;;93.00;38.03;;;;;;;;;;5088165;28;20036;-84
2021/01/28 01:43:58;;;;;;;80.85;36.13;;;;;;;;;;5088239;28;20037;-84
2021/01/28 01:46:24;;;;;;;89.65;37.35;;;;;;;;;;5087781;28;20030;-84
2021/01/28 01:48:53;;;;;;;95.88;39.92;;;;;;;;;;5021131;28;20094;-82
2021/01/28 01:51:22;;;;;;;81.65;35.97;;;;;;;;;;5075047;28;20098;-83
2021/01/28 01:53:52;;;;;;;82.90;36.63;;;;;;;;;;5075710;28;20031;-83
2021/01/28 01:56:26;;;;;;;77.55;35.83;;;;;;;;;;5080344;28;20042;-82
2021/01/28 01:59:02;;;;;;;89.88;38.60;;;;;;;;;;5076771;28;20029;-85
2021/01/28 02:01:30;;;;;;;87.53;37.60;;;;;;;;;;5092698;28;20067;-85
2021/01/28 02:03:56;;;;;;;78.93;34.83;;;;;;;;;;5084875;28;20086;-85
2021/01/28 02:06:22;;;;;;;72.18;33.33;;;;;;;;;;5085149;28;20028;-86
2021/01/28 02:08:49;;;;;;;91.20;39.03;;;;;;;;;;5082316;28;20032;-84
2021/01/28 02:11:16;;;;;;;83.38;35.45;;;;;;;;;;5100087;28;20031;-86
2021/01/28 02:13:43;;;;;;;74.55;32.17;;;;;;;;;;5082369;28;20099;-84
2021/01/28 02:16:10;;;;;;;86.00;37.70;;;;;;;;;;5099537;28;20089;-84
2021/01/28 02:18:36;;;;;;;80.40;33.65;;;;;;;;;;5081754;28;20048;-85
2021/01/28 02:21:21;;;;;;;101.35;40.47;;;;;;;;;;5088607;28;20028;-86
2021/01/28 02:24:06;;;;;;;73.13;33.45;;;;;;;;;;5081984;28;20035;-85
2021/01/28 02:26:34;;;;;;;81.75;34.20;;;;;;;;;;5099918;28;20036;-86
2021/01/28 02:29:00;;;;;;;79.63;33.97;;;;;;;;;;5077279;28;20119;-84
2021/01/28 02:31:28;;;;;;;87.18;36.92;;;;;;;;;;5081992;28;20028;-85
2021/01/28 02:33:56;;;;;;;80.28;35.28;;;;;;;;;;5080927;28;20031;-85
2021/01/28 02:36:29;;;;;;;83.13;36.75;;;;;;;;;;5098612;28;20038;-85
2021/01/28 02:38:55;;;;;;;76.20;33.88;;;;;;;;;;5080826;28;20142;-86
2021/01/28 02:41:21;;;;;;;77.57;34.78;;;;;;;;;;5080255;28;20036;-86
2021/01/28 02:43:47;;;;;;;81.93;35.80;;;;;;;;;;5080324;28;20042;-86
2021/01/28 02:46:15;;;;;;;91.47;36.70;;;;;;;;;;5097936;28;20027;-86
2021/01/28 02:48:41;;;;;;;86.30;33.97;;;;;;;;;;5097650;28;20035;-84
2021/01/28 02:51:08;;;;;;;84.13;35.38;;;;;;;;;;5081037;28;20034;-85
2021/01/28 02:53:35;;;;;;;89.45;37.00;;;;;;;;;;5081438;28;20024;-85
2021/01/28 02:56:02;;;;;;;83.07;37.63;;;;;;;;;;5081601;28;20044;-86
2021/01/28 02:58:28;;;;;;;79.80;34.65;;;;;;;;;;5099202;28;20020;-85
2021/01/28 03:00:58;;;;;;;77.10;35.38;;;;;;;;;;5099435;28;20036;-84
2021/01/28 03:03:24;;;;;;;96.72;40.38;;;;;;;;;;5094654;28;20028;-86
2021/01/28 03:05:50;;;;;;;88.18;37.60;;;;;;;;;;5080850;28;20031;-85
2021/01/28 03:08:17;;;;;;;75.53;34.75;;;;;;;;;;5018486;28;20045;-84
2021/01/28 03:10:43;;;;;;;87.07;36.13;;;;;;;;;;5084303;28;20030;-85
2021/01/28 03:13:10;;;;;;;75.13;34.05;;;;;;;;;;5084045;28;20033;-85
2021/01/28 03:15:36;;;;;;;86.80;36.00;;;;;;;;;;5083525;28;20053;-85
2021/01/28 03:18:02;;;;;;;86.18;36.08;;;;;;;;;;5083982;28;20405;-85
2021/01/28 03:20:28;;;;;;;85.00;37.53;;;;;;;;;;5083004;28;20030;-86
2021/01/28 03:22:57;;;;;;;90.55;38.08;;;;;;;;;;5084038;28;20479;-86
2021/01/28 03:25:23;;;;;;;88.32;37.47;;;;;;;;;;5083919;28;20026;-85
2021/01/28 03:27:50;;;;;;;83.03;36.95;;;;;;;;;;5015793;28;20026;-85
2021/01/28 03:30:30;;;;;;;81.97;36.72;;;;;;;;;;5015552;28;20057;-85
2021/01/28 03:32:56;;;;;;;85.75;36.58;;;;;;;;;;5012179;28;20041;-84
2021/01/28 03:35:23;;;;;;;83.07;37.47;;;;;;;;;;5015213;28;20046;-85
2021/01/28 03:37:50;;;;;;;99.20;39.63;;;;;;;;;;5083694;28;20087;-84
2021/01/28 03:40:22;;;;;;;86.20;37.10;;;;;;;;;;5024257;28;20016;-85
2021/01/28 03:42:49;;;;;;;93.68;36.83;;;;;;;;;;5080062;28;20347;-86
2021/01/28 03:45:15;;;;;;;76.32;33.30;;;;;;;;;;5097085;28;20028;-85
2021/01/28 03:47:42;;;;;;;88.85;36.17;;;;;;;;;;5080548;28;20032;-86
2021/01/28 03:50:09;;;;;;;78.10;32.40;;;;;;;;;;5079250;28;20024;-85
2021/01/28 03:52:36;;;;;;;77.53;33.53;;;;;;;;;;5079807;28;20380;-85
2021/01/28 03:55:02;;;;;;;80.20;34.30;;;;;;;;;;5079968;28;20059;-85
2021/01/28 03:57:28;;;;;;;75.53;32.78;;;;;;;;;;5080024;28;20028;-85
2021/01/28 03:59:54;;;;;;;77.00;34.25;;;;;;;;;;5080770;28;20351;-84
2021/01/28 04:02:20;;;;;;;81.07;34.03;;;;;;;;;;5098266;28;20064;-85
2021/01/28 04:04:46;;;;;;;84.55;34.45;;;;;;;;;;5077459;28;20423;-85
2021/01/28 04:07:13;;;;;;;96.18;36.78;;;;;;;;;;5080645;28;20035;-85
2021/01/28 04:09:39;;;;;;;87.00;36.78;;;;;;;;;;5082346;28;20026;-84
2021/01/28 04:12:05;;;;;;;81.28;34.20;;;;;;;;;;5083239;28;20041;-85
2021/01/28 04:14:31;;;;;;;75.90;29.95;;;;;;;;;;5083121;28;20386;-85
2021/01/28 04:16:57;;;;;;;93.70;37.17;;;;;;;;;;5013807;28;20037;-85
2021/01/28 04:19:23;;;;;;;79.35;33.70;;;;;;;;;;5082830;28;20133;-85
2021/01/28 04:21:49;;;;;;;72.82;31.90;;;;;;;;;;5014290;28;20065;-85
2021/01/28 04:24:16;;;;;;;80.32;32.55;;;;;;;;;;5013965;28;20021;-85
2021/01/28 04:26:42;;;;;;;85.00;34.75;;;;;;;;;;5082919;28;20390;-85
2021/01/28 04:29:08;;;;;;;72.65;32.00;;;;;;;;;;5014960;28;20022;-84
2021/01/28 04:31:34;;;;;;;81.80;34.45;;;;;;;;;;5083347;28;20041;-84
2021/01/28 04:34:00;;;;;;;73.85;31.13;;;;;;;;;;5092016;28;20115;-84
2021/01/28 04:36:27;;;;;;;76.05;32.03;;;;;;;;;;5097625;28;20043;-85
2021/01/28 04:38:54;;;;;;;84.90;33.92;;;;;;;;;;5079345;28;20055;-83
2021/01/28 04:41:21;;;;;;;69.47;30.00;;;;;;;;;;5079627;28;20028;-84
2021/01/28 04:43:49;;;;;;;76.80;32.72;;;;;;;;;;5079879;28;20024;-84
2021/01/28 04:46:22;;;;;;;83.18;31.05;;;;;;;;;;5097705;28;20085;-83
2021/01/28 04:48:49;;;;;;;76.57;30.55;;;;;;;;;;5080169;28;20031;-83
2021/01/28 04:51:15;;;;;;;72.40;29.10;;;;;;;;;;5079562;28;20032;-85
2021/01/28 04:53:46;;;;;;;68.45;28.10;;;;;;;;;;5079742;28;20077;-85
2021/01/28 04:56:14;;;;;;;71.85;31.02;;;;;;;;;;5079577;28;20036;-84
2021/01/28 04:58:40;;;;;;;76.72;31.55;;;;;;;;;;5088114;28;20028;-84
2021/01/28 05:01:07;;;;;;;78.90;29.98;;;;;;;;;;5075332;28;20196;-84
2021/01/28 05:03:37;;;;;;;75.30;31.02;;;;;;;;;;5097275;28;20028;-84
2021/01/28 05:06:05;;;;;;;75.75;31.02;;;;;;;;;;5096805;28;20024;-84
2021/01/28 05:08:31;;;;;;;67.55;29.10;;;;;;;;;;5097129;28;20048;-85
2021/01/28 05:10:58;;;;;;;76.25;31.85;;;;;;;;;;5079549;28;20032;-84
2021/01/28 05:13:29;;;;;;;54.25;24.98;;;;;;;;;;5079596;28;20047;-84
2021/01/28 05:15:55;;;;;;;66.45;28.65;;;;;;;;;;5097351;28;20039;-84
2021/01/28 05:18:36;;;;;;;71.63;29.35;;;;;;;;;;5096052;28;20131;-84
2021/01/28 05:21:23;;;;;;;61.05;28.88;;;;;;;;;;5078876;28;20052;-84
2021/01/28 05:23:49;;;;;;;68.63;30.05;;;;;;;;;;5078501;28;20131;-83
2021/01/28 05:26:30;;;;;;;63.53;28.73;;;;;;;;;;5098297;28;20024;-84
2021/01/28 05:29:11;;;;;;;60.70;27.83;;;;;;;;;;5085171;28;20055;-84
2021/01/28 05:31:37;;;;;;;68.78;29.05;;;;;;;;;;5051540;28;20026;-83
2021/01/28 05:34:04;;;;;;;60.30;27.10;;;;;;;;;;5085114;28;20038;-83
2021/01/28 05:36:30;;;;;;;58.03;27.77;;;;;;;;;;5016518;28;20049;-84
2021/01/28 05:38:57;;;;;;;60.08;27.88;;;;;;;;;;5016447;28;20030;-84
2021/01/28 05:41:30;;;;;;;62.50;27.05;;;;;;;;;;5084721;28;20364;-84
2021/01/28 05:43:57;;;;;;;58.63;27.45;;;;;;;;;;5026553;28;20074;-84
2021/01/28 05:46:28;;;;;;;60.58;27.20;;;;;;;;;;5082809;28;20043;-83
2021/01/28 05:49:03;;;;;;;53.30;26.15;;;;;;;;;;5060948;28;20018;-83
2021/01/28 05:51:35;;;;;;;57.63;26.98;;;;;;;;;;5035232;28;20029;-85
2021/01/28 05:54:03;;;;;;;63.80;26.40;;;;;;;;;;5085839;28;20024;-83
2021/01/28 05:56:32;;;;;;;54.78;26.63;;;;;;;;;;5082956;28;20090;-84
2021/01/28 05:59:05;;;;;;;60.15;26.35;;;;;;;;;;5100310;28;20070;-82
2021/01/28 06:01:41;;;;;;;56.55;24.95;;;;;;;;;;5096258;28;20031;-84
2021/01/28 06:04:23;;;;;;;53.92;24.65;;;;;;;;;;5091243;28;20395;-84
2021/01/28 06:06:58;;;;;;;46.53;22.27;;;;;;;;;;5081504;28;20416;-84
2021/01/28 06:09:36;;;;;;;58.63;27.02;;;;;;;;;;5098418;28;20032;-85
2021/01/28 06:12:14;;;;;;;52.83;25.05;;;;;;;;;;5081750;28;20035;-84
2021/01/28 06:14:47;;;;;;;52.67;24.88;;;;;;;;;;5081096;28;20039;-84
2021/01/28 06:17:13;;;;;;;50.92;24.92;;;;;;;;;;5082813;28;20058;-83
2021/01/28 06:19:57;;;;;;;55.75;24.52;;;;;;;;;;5098595;28;20429;-83
2021/01/28 06:22:42;;;;;;;44.47;22.55;;;;;;;;;;5097884;28;20084;-85
2021/01/28 06:25:23;;;;;;;46.22;23.42;;;;;;;;;;5080246;28;20122;-84
2021/01/28 06:27:58;;;;;;;48.05;22.35;;;;;;;;;;5068136;28;20035;-83
2021/01/28 06:30:43;;;;;;;49.05;23.00;;;;;;;;;;5095281;28;20030;-84
2021/01/28 06:33:09;;;;;;;46.40;22.85;;;;;;;;;;5098931;28;20066;-84
2021/01/28 06:35:54;;;;;;;49.53;24.00;;;;;;;;;;5119264;28;20032;-85
2021/01/28 06:38:29;;;;;;;44.75;22.63;;;;;;;;;;5110853;28;20059;-84
2021/01/28 06:40:58;;;;;;;51.17;24.17;;;;;;;;;;5081654;28;20032;-85
2021/01/28 06:43:51;;;;;;;43.78;21.60;;;;;;;;;;5099315;28;20034;-84
2021/01/28 06:46:27;;;;;;;48.28;22.95;;;;;;;;;;5049501;28;20136;-85
2021/01/28 06:48:57;;;;;;;42.70;22.20;;;;;;;;;;5104565;28;20192;-85
2021/01/28 06:51:36;;;;;;;43.15;20.35;;;;;;;;;;5109661;28;20047;-85
2021/01/28 06:54:05;;;;;;;52.38;22.15;;;;;;;;;;5098530;28;20023;-85
2021/01/28 06:56:41;;;;;;;46.88;22.88;;;;;;;;;;5081169;28;20054;-85
2021/01/28 06:59:26;;;;;;;49.00;23.15;;;;;;;;;;5107061;28;20024;-83
2021/01/28 07:02:02;;;;;;;44.38;21.27;;;;;;;;;;5091875;28;20030;-84
2021/01/28 07:04:39;;;;;;;43.20;21.85;;;;;;;;;;5090951;28;20035;-82
2021/01/28 07:07:12;;;;;;;45.67;22.75;;;;;;;;;;5090398;28;20228;-84
2021/01/28 07:09:41;;;;;;;40.72;21.52;;;;;;;;;;5113042;28;20032;-84
2021/01/28 07:12:09;;;;;;;35.50;19.40;;;;;;;;;;5074123;28;20094;-83
2021/01/28 07:14:35;;;;;;;35.47;18.65;;;;;;;;;;5086358;28;20040;-84
2021/01/28 07:17:18;;;;;;;36.50;18.95;;;;;;;;;;5090743;28;20036;-84
2021/01/28 07:19:50;;;;;;;40.92;20.50;;;;;;;;;;5114005;28;20027;-84
2021/01/28 07:22:19;;;;;;;33.00;18.35;;;;;;;;;;5075173;28;20032;-83
2021/01/28 07:24:45;;;;;;;31.58;17.88;;;;;;;;;;5096345;28;20032;-83
2021/01/28 07:27:12;;;;;;;37.05;18.92;;;;;;;;;;5096149;28;20031;-84
2021/01/28 07:29:38;;;;;;;36.40;18.83;;;;;;;;;;5104275;28;20046;-83
2021/01/28 07:32:05;;;;;;;36.88;19.17;;;;;;;;;;5093871;28;20391;-83
2021/01/28 07:34:32;;;;;;;37.78;19.48;;;;;;;;;;5071786;28;20075;-85
2021/01/28 07:37:18;;;;;;;33.80;17.08;;;;;;;;;;5086077;28;20314;-84
2021/01/28 07:39:44;;;;;;;39.97;18.85;;;;;;;;;;5084080;28;20053;-84
2021/01/28 07:42:25;;;;;;;32.20;17.17;;;;;;;;;;5102552;28;20024;-85
2021/01/28 07:45:11;;;;;;;27.98;16.00;;;;;;;;;;5083030;28;20158;-83
2021/01/28 07:47:44;;;;;;;30.63;16.90;;;;;;;;;;5105936;28;20040;-85
2021/01/28 07:50:10;;;;;;;28.27;16.92;;;;;;;;;;5093942;28;20121;-85
2021/01/28 07:52:39;;;;;;;31.67;16.60;;;;;;;;;;5114199;28;20039;-85
2021/01/28 07:55:26;;;;;;;34.58;19.38;;;;;;;;;;5114313;28;20082;-85
2021/01/28 07:57:52;;;;;;;29.95;17.17;;;;;;;;;;5105246;28;20012;-85
2021/01/28 08:00:20;;;;;;;32.78;15.75;;;;;;;;;;5120536;28;20077;-86
2021/01/28 08:02:59;;;;;;;29.25;16.42;;;;;;;;;;5105157;28;20015;-85
2021/01/28 08:05:25;;;;;;;26.60;16.50;;;;;;;;;;5108641;28;20023;-86
2021/01/28 08:08:13;;;;;;;27.65;14.60;;;;;;;;;;5124906;27;20050;-86
2021/01/28 08:10:40;;;;;;;25.02;15.05;;;;;;;;;;5104781;28;20024;-85
2021/01/28 08:13:08;;;;;;;28.33;15.27;;;;;;;;;;5123038;28;20031;-85
2021/01/28 08:15:38;;;;;;;25.33;15.20;;;;;;;;;;5105027;28;20095;-86
2021/01/28 08:18:04;;;;;;;;;;;;;;;;;;5108283;28;20031;-86
2021/01/28 08:20:33;;;;;;;24.63;14.48;;;;;;;;;;5104748;28;19922;-86
2021/01/28 08:23:01;;;;;;;23.52;13.52;;;;;;;;;;5124937;28;20028;-86
2021/01/28 08:25:30;;;;;;;24.17;15.00;;;;;;;;;;5099687;28;20054;-87
2021/01/28 08:28:05;;;;;;;24.27;15.23;;;;;;;;;;5089134;28;20032;-86
2021/01/28 08:30:31;;;;;;;21.17;12.98;;;;;;;;;;5090998;28;20035;-86
2021/01/28 08:32:59;;;;;;;20.10;13.38;;;;;;;;;;5113061;28;20072;-86
2021/01/28 08:35:28;;;;;;;23.15;13.48;;;;;;;;;;5089551;28;20066;-86
2021/01/28 08:37:54;;;;;;;;;;;;;;;;;;5093772;28;20496;-86
2021/01/28 08:40:23;;;;;;;22.60;13.07;;;;;;;;;;5106840;28;20039;-86
2021/01/28 08:42:50;;;;;;;22.57;11.93;;;;;;;;;;5107012;28;20450;-86
2021/01/28 08:45:25;;;;;;;18.52;11.85;;;;;;;;;;5091336;28;20144;-86
2021/01/28 08:47:56;;;;;;;22.50;12.20;;;;;;;;;;5091769;28;20045;-86
2021/01/28 08:50:24;;;;;;;21.50;11.93;;;;;;;;;;5109760;28;20410;-86
2021/01/28 08:52:53;;;;;;;18.60;11.98;;;;;;;;;;5090609;28;20091;-86
2021/01/28 08:55:22;;;;;;;20.05;12.60;;;;;;;;;;5091864;28;20043;-86
2021/01/28 08:57:48;;;;;;;;;;;;;;;;;;5094602;28;20023;-85
2021/01/28 09:00:18;;;;;;;18.52;11.65;;;;;;;;;;5106421;28;19912;-86
2021/01/28 09:02:46;;;;;;;18.52;11.45;;;;;;;;;;5100206;28;20347;-86
2021/01/28 09:05:22;;;;;;;18.90;11.85;;;;;;;;;;5088363;28;20054;-86
2021/01/28 09:07:59;;;;;;;18.17;12.20;;;;;;;;;;5083978;28;20323;-86
2021/01/28 09:10:37;;;;;;;15.70;9.98;;;;;;;;;;5083229;28;20027;-86
2021/01/28 09:13:14;;;;;;;17.75;11.88;;;;;;;;;;5104621;28;20058;-86
2021/01/28 09:15:43;;;;;;;21.42;11.30;;;;;;;;;;5086653;28;20043;-87
2021/01/28 09:18:30;;;;;;;16.08;11.27;;;;;;;;;;5087037;28;20028;-84
2021/01/28 09:21:25;;;;;;;17.23;11.00;;;;;;;;;;5087187;28;20047;-86
2021/01/28 09:24:00;;;;;;;15.30;10.15;;;;;;;;;;5059417;28;20039;-85
2021/01/28 09:26:30;;;;;;;16.27;11.35;;;;;;;;;;5084889;28;20108;-86
2021/01/28 09:29:07;;;;;;;18.92;12.07;;;;;;;;;;5079388;28;20360;-85
2021/01/28 09:31:33;;;;;;;15.10;10.23;;;;;;;;;;5089780;28;20027;-85
2021/01/28 09:34:11;;;;;;;14.30;9.43;;;;;;;;;;5081647;28;20129;-85
2021/01/28 09:36:37;;;;;;;15.95;11.00;;;;;;;;;;5083194;28;20039;-85
2021/01/28 09:39:06;;;;;;;14.20;9.75;;;;;;;;;;5104626;28;20024;-85
2021/01/28 09:41:37;;;;;;;14.93;10.07;;;;;;;;;;5093998;28;20043;-86
2021/01/28 09:44:05;;;;;;;13.70;9.00;;;;;;;;;;5087274;28;20031;-86
2021/01/28 09:46:31;;;;;;;15.02;9.90;;;;;;;;;;5088461;28;20336;-86
2021/01/28 09:48:59;;;;;;;13.80;9.77;;;;;;;;;;5104679;28;20027;-86
2021/01/28 09:51:25;;;;;;;14.77;8.57;;;;;;;;;;5091476;28;20024;-86
2021/01/28 09:54:10;;;;;;;12.05;8.30;;;;;;;;;;5085448;28;20157;-87
2021/01/28 09:56:36;;;;;;;13.57;8.85;;;;;;;;;;5082504;28;20039;-85
2021/01/28 09:59:02;;;;;;;14.68;8.75;;;;;;;;;;5067797;28;20012;-86
2021/01/28 10:01:28;;;;;;;14.88;8.93;;;;;;;;;;5039745;28;20061;-87
2021/01/28 10:03:55;;;;;;;12.35;8.50;;;;;;;;;;5066995;28;20097;-86
2021/01/28 10:06:21;;;;;;;14.07;9.07;;;;;;;;;;5089065;28;20032;-85
2021/01/28 10:08:47;;;;;;;12.48;8.77;;;;;;;;;;5091819;28;20035;-86
2021/01/28 10:11:14;;;;;;;11.52;7.22;;;;;;;;;;5106060;28;20077;-86
2021/01/28 10:13:40;;;;;;;9.85;7.55;;;;;;;;;;5100653;28;20027;-86
2021/01/28 10:16:06;;;;;;;13.20;7.80;;;;;;;;;;5100061;28;20044;-86
2021/01/28 10:18:32;;;;;;;12.95;8.93;;;;;;;;;;5082217;28;20238;-86
2021/01/28 10:20:59;;;;;;;9.70;7.55;;;;;;;;;;5087712;28;20027;-86
2021/01/28 10:23:25;;;;;;;11.85;8.35;;;;;;;;;;5110056;28;20024;-86
2021/01/28 10:25:51;;;;;;;14.10;8.10;;;;;;;;;;5089519;28;20023;-85
2021/01/28 10:28:17;;;;;;;10.80;7.80;;;;;;;;;;5104360;28;20038;-85
2021/01/28 10:30:44;;;;;;;10.10;7.13;;;;;;;;;;5115790;28;20035;-84
2021/01/28 10:33:11;;;;;;;12.38;7.90;;;;;;;;;;5109090;28;20016;-84
2021/01/28 10:35:37;;;;;;;9.70;7.75;;;;;;;;;;5100864;28;20381;-85
2021/01/28 10:38:04;;;;;;;11.05;8.07;;;;;;;;;;5107287;28;20035;-86
2021/01/28 10:40:31;;;;;;;14.05;8.23;;;;;;;;;;5112061;28;20097;-85
2021/01/28 10:42:59;;;;;;;12.80;8.50;;;;;;;;;;5110672;28;20028;-86
2021/01/28 10:45:27;;;;;;;10.63;7.30;;;;;;;;;;5110768;28;20058;-85
2021/01/28 10:47:53;;;;;;;11.73;7.15;;;;;;;;;;5089545;28;20030;-85
2021/01/28 10:50:21;;;;;;;12.45;8.05;;;;;;;;;;5088057;28;20032;-85
2021/01/28 10:52:48;;;;;;;11.43;7.00;;;;;;;;;;5085440;28;20080;-85
2021/01/28 10:55:15;;;;;;;8.73;6.93;;;;;;;;;;5090657;28;20023;-86
2021/01/28 10:57:41;;;;;;;10.73;7.43;;;;;;;;;;5092890;28;20411;-86
2021/01/28 11:00:07;;;;;;;8.27;6.53;;;;;;;;;;5084673;28;20028;-85
2021/01/28 11:02:34;;;;;;;13.88;7.63;;;;;;;;;;5086504;28;20052;-86
2021/01/28 11:05:00;;;;;;;10.50;8.02;;;;;;;;;;5093061;28;20430;-86
2021/01/28 11:07:26;;;;;;;12.02;6.55;;;;;;;;;;5091832;28;20024;-86
2021/01/28 11:09:53;;;;;;;9.68;6.97;;;;;;;;;;5076903;28;20028;-85
2021/01/28 11:12:19;;;;;;;9.10;6.28;;;;;;;;;;5080212;28;20082;-85
2021/01/28 11:14:45;;;;;;;9.82;6.68;;;;;;;;;;5079459;28;20028;-85
2021/01/28 11:17:11;;;;;;;8.85;6.43;;;;;;;;;;5099156;28;20023;-86
2021/01/28 11:19:38;;;;;;;10.13;6.90;;;;;;;;;;5087629;28;20032;-85
2021/01/28 11:22:04;;;;;;;11.02;6.55;;;;;;;;;;5088808;28;20024;-84
2021/01/28 11:24:30;;;;;;;8.05;6.43;;;;;;;;;;5090812;28;20028;-85
2021/01/28 11:26:57;;;;;;;9.48;6.05;;;;;;;;;;5101845;28;20082;-85
2021/01/28 11:29:24;;;;;;;8.30;6.40;;;;;;;;;;5088825;28;20042;-85
2021/01/28 11:31:51;;;;;;;7.53;6.68;;;;;;;;;;5096533;28;20024;-86
2021/01/28 11:34:17;;;;;;;7.93;5.72;;;;;;;;;;5089616;28;20031;-84
2021/01/28 11:36:45;;;;;;;8.73;6.45;;;;;;;;;;5085761;28;20039;-83
2021/01/28 11:39:15;;;;;;;9.40;7.20;;;;;;;;;;5092117;28;20332;-85
2021/01/28 11:41:41;;;;;;;9.13;6.75;;;;;;;;;;5091454;28;20046;-85
2021/01/28 11:44:07;;;;;;;8.02;5.85;;;;;;;;;;5087577;28;20046;-85
2021/01/28 11:46:33;;;;;;;9.55;6.10;;;;;;;;;;5088613;28;20102;-86
2021/01/28 11:49:00;;;;;;;8.63;6.47;;;;;;;;;;5082830;28;20022;-86
2021/01/28 11:51:26;;;;;;;6.72;5.63;;;;;;;;;;5107671;28;20359;-86
2021/01/28 11:53:52;;;;;;;9.23;6.85;;;;;;;;;;5090987;28;20111;-85
2021/01/28 11:56:18;;;;;;;8.80;6.57;;;;;;;;;;5090586;28;20058;-85
2021/01/28 11:58:44;;;;;;;12.52;6.03;;;;;;;;;;5087233;28;20028;-85
2021/01/28 12:01:11;;;;;;;10.73;6.93;;;;;;;;;;5103198;28;20039;-86
2021/01/28 12:03:37;;;;;;;7.90;6.43;;;;;;;;;;5084447;28;20020;-86
2021/01/28 12:06:03;;;;;;;9.80;6.82;;;;;;;;;;5108638;28;20030;-86
2021/01/28 12:08:30;;;;;;;8.63;6.63;;;;;;;;;;5090856;28;20031;-86
2021/01/28 12:10:56;;;;;;;10.05;6.40;;;;;;;;;;5105542;28;20072;-86
2021/01/28 12:13:22;;;;;;;10.88;7.72;;;;;;;;;;5108915;28;20027;-85
2021/01/28 12:15:48;;;;;;;9.88;6.93;;;;;;;;;;5089551;28;20028;-86
2021/01/28 12:18:15;;;;;;;9.63;7.13;;;;;;;;;;5085151;28;20296;-86
2021/01/28 12:20:41;;;;;;;12.25;7.95;;;;;;;;;;5103191;28;20023;-86
2021/01/28 12:23:08;;;;;;;11.73;8.07;;;;;;;;;;5120885;28;20011;-85
2021/01/28 12:25:34;;;;;;;12.60;7.53;;;;;;;;;;5096789;28;20024;-84
2021/01/28 12:28:00;;;;;;;10.52;7.32;;;;;;;;;;5087874;28;20382;-86
2021/01/28 12:30:27;;;;;;;9.35;6.88;;;;;;;;;;5090459;28;20111;-85
2021/01/28 12:32:53;;;;;;;9.57;7.78;;;;;;;;;;5099337;28;20076;-86
2021/01/28 12:35:21;;;;;;;9.02;7.35;;;;;;;;;;5089198;28;20046;-86
2021/01/28 12:37:47;;;;;;;11.23;8.68;;;;;;;;;;5088676;28;20031;-86
2021/01/28 12:40:15;;;;;;;10.52;7.95;;;;;;;;;;5089119;28;20106;-87
2021/01/28 12:42:42;;;;;;;9.88;7.63;;;;;;;;;;5090248;28;20101;-87
2021/01/28 12:45:09;;;;;;;9.95;7.90;;;;;;;;;;5082552;28;20387;-85
2021/01/28 12:47:35;;;;;;;10.38;7.18;;;;;;;;;;5114472;28;20039;-86
2021/01/28 12:50:01;;;;;;;11.05;8.73;;;;;;;;;;5094791;28;20070;-86
2021/01/28 12:52:27;;;;;;;10.75;7.50;;;;;;;;;;5089468;28;20039;-85
2021/01/28 12:54:53;;;;;;;11.38;8.15;;;;;;;;;;5078555;28;20380;-85
2021/01/28 12:57:20;;;;;;;11.45;7.43;;;;;;;;;;5080003;28;20040;-85
2021/01/28 12:59:46;;;;;;;9.00;7.97;;;;;;;;;;5084521;28;20055;-83
2021/01/28 13:02:13;;;;;;;11.60;8.65;;;;;;;;;;5081222;28;20039;-86
2021/01/28 13:04:41;;;;;;;10.35;7.90;;;;;;;;;;5084525;28;20031;-84
2021/01/28 13:07:07;;;;;;;8.98;7.07;;;;;;;;;;5102622;28;20036;-86
2021/01/28 13:09:33;;;;;;;9.68;6.95;;;;;;;;;;5101066;28;20320;-86
2021/01/28 13:12:00;;;;;;;10.18;8.10;;;;;;;;;;5108500;28;20043;-86
2021/01/28 13:14:26;;;;;;;8.25;7.40;;;;;;;;;;5107822;28;20024;-86
2021/01/28 13:16:52;;;;;;;8.63;7.72;;;;;;;;;;5091616;28;20040;-85
2021/01/28 13:19:18;;;;;;;9.73;8.02;;;;;;;;;;5089269;28;20035;-87
2021/01/28 13:21:47;;;;;;;8.63;6.95;;;;;;;;;;5092938;28;20043;-87
2021/01/28 13:24:13;;;;;;;7.83;6.87;;;;;;;;;;5096796;28;20067;-86
2021/01/28 13:26:40;;;;;;;8.15;7.20;;;;;;;;;;5085614;28;20272;-85
2021/01/28 13:29:06;;;;;;;7.85;6.68;;;;;;;;;;5079460;28;20020;-85
2021/01/28 13:31:32;;;;;;;8.80;6.80;;;;;;;;;;5100147;28;20019;-85
2021/01/28 13:33:59;;;;;;;9.77;7.50;;;;;;;;;;5068187;28;20032;-87
2021/01/28 13:36:25;;;;;;;8.10;6.60;;;;;;;;;;5090524;28;20066;-87
2021/01/28 13:38:51;;;;;;;8.45;7.30;;;;;;;;;;5069306;28;20035;-85
2021/01/28 13:41:17;;;;;;;7.93;5.95;;;;;;;;;;5078345;28;20020;-86
2021/01/28 13:43:44;;;;;;;6.65;5.95;;;;;;;;;;5079449;28;20092;-87
2021/01/28 13:46:10;;;;;;;7.47;5.65;;;;;;;;;;5098852;28;20028;-86
2021/01/28 13:48:36;;;;;;;8.13;6.32;;;;;;;;;;5110432;28;20031;-86
2021/01/28 13:51:02;;;;;;;7.20;6.30;;;;;;;;;;5116788;28;20023;-86
2021/01/28 13:53:28;;;;;;;7.00;5.43;;;;;;;;;;5091584;28;20057;-87
2021/01/28 13:55:55;;;;;;;6.05;5.45;;;;;;;;;;5101126;28;20047;-85
2021/01/28 13:58:21;;;;;;;5.88;5.22;;;;;;;;;;5108019;28;20114;-86
2021/01/28 14:00:47;;;;;;;5.90;5.07;;;;;;;;;;5095100;28;20110;-86
2021/01/28 14:03:14;;;;;;;5.88;4.50;;;;;;;;;;5083627;28;20024;-87
2021/01/28 14:05:40;;;;;;;6.45;5.57;;;;;;;;;;5085104;28;20082;-85
2021/01/28 14:08:06;;;;;;;5.85;5.07;;;;;;;;;;5083864;28;20051;-86
2021/01/28 14:10:33;;;;;;;5.45;4.93;;;;;;;;;;5092056;28;20020;-87
2021/01/28 14:13:00;;;;;;;5.03;4.53;;;;;;;;;;5090181;28;20115;-87
2021/01/28 14:15:28;;;;;;;6.15;4.85;;;;;;;;;;5090990;28;20028;-86
2021/01/28 14:17:54;;;;;;;5.97;4.43;;;;;;;;;;5094063;28;20339;-86
2021/01/28 14:20:20;;;;;;;4.72;4.18;;;;;;;;;;5094929;28;20115;-86
2021/01/28 14:22:47;;;;;;;6.88;4.57;;;;;;;;;;5091958;28;20087;-88
2021/01/28 14:25:15;;;;;;;5.20;4.57;;;;;;;;;;5105712;28;20350;-87
2021/01/28 14:27:41;;;;;;;5.53;4.35;;;;;;;;;;5109777;28;20073;-87
2021/01/28 14:30:08;;;;;;;5.47;4.65;;;;;;;;;;5105625;28;20050;-87
2021/01/28 14:32:34;;;;;;;6.82;4.28;;;;;;;;;;5115750;28;20059;-86
2021/01/28 14:35:02;;;;;;;4.88;3.72;;;;;;;;;;5081959;28;20074;-85